»·PEaware :: N3452E KSNA-KPHX

N3452E :: KSNA-KPHX

FLIGHT INFORMATION

Flight Status: Arrived
Operator: Privately registered:
United States
More flights under this callsign
Pilot: John C. (27555)
Aircraft: BOMBARDIER BD-100 CHALLENGER 300
(CL30)
More flights by this aircraft type
Origin: KSNA John Wayne-Orange Co
United States
Destination: KPHX Phoenix Sky Harbor Intl
United States
More flights between these airports :: More routes between these airports
Route: +STAYY3 CNERY BLH HYDRR1
File this flight plan on PilotEdge
Remarks:
Altitude:
(Current/Filed)
35,000ft
Speed:
(Current/Filed)
460kts
Departed: 14-Nov-20 08:52 PM
Arrived: 14-Nov-20 09:50 PM
Distance/Time
Traveled:
293nm/0:58
Distance/Time
To Go:
Arrived

Flight Plot

Page will automatically refresh every two minutes.

Flight plan parsing failed; only flown route is shown


Map Options




Map Legend


Flown Route
Filed Route
Departure Airport
Arrival Airport
Navaid (VOR, NDB)
Fix

Horizontal Profiles

Position Reports

Time Latitude Longitude Heading Altitude Ground
Speed
14-Nov-20 20:18 33.671657 -117.867726 207 63ft 0kts
14-Nov-20 20:19 33.671657 -117.867726 207 63ft 0kts
14-Nov-20 20:20 33.671657 -117.867726 207 63ft 0kts
14-Nov-20 20:21 33.671657 -117.867726 207 63ft 0kts
14-Nov-20 20:22 33.671657 -117.867726 207 63ft 0kts
14-Nov-20 20:23 33.671657 -117.867726 207 63ft 0kts
14-Nov-20 20:24 33.671657 -117.867726 207 63ft 0kts
14-Nov-20 20:25 33.671657 -117.867726 207 63ft 0kts
14-Nov-20 20:26 33.671657 -117.867726 207 63ft 0kts
14-Nov-20 20:27 33.671657 -117.867726 207 63ft 0kts
14-Nov-20 20:28 33.671657 -117.867726 207 63ft 0kts
14-Nov-20 20:29 33.671657 -117.867726 207 63ft 0kts
14-Nov-20 20:30 33.671654 -117.867728 208 63ft 0kts
14-Nov-20 20:31 33.673186 -117.867200 42 63ft 10kts
14-Nov-20 20:32 33.675945 -117.865300 29 63ft 12kts
14-Nov-20 20:33 33.679124 -117.863318 27 63ft 13kts
14-Nov-20 20:34 33.680619 -117.863024 300 63ft 0kts
14-Nov-20 20:35 33.680619 -117.863024 300 63ft 0kts
14-Nov-20 20:36 33.680619 -117.863024 300 63ft 0kts
14-Nov-20 20:37 33.680619 -117.863024 300 63ft 0kts
14-Nov-20 20:38 33.680619 -117.863024 300 63ft 0kts
14-Nov-20 20:39 33.680619 -117.863024 300 63ft 0kts
14-Nov-20 20:40 33.680619 -117.863024 300 63ft 0kts
14-Nov-20 20:41 33.680619 -117.863024 300 63ft 0kts
14-Nov-20 20:42 33.680619 -117.863024 300 63ft 0kts
14-Nov-20 20:43 33.680619 -117.863024 300 63ft 0kts
14-Nov-20 20:44 33.680663 -117.863102 304 62ft 0kts
14-Nov-20 20:45 33.680663 -117.863102 304 62ft 0kts
14-Nov-20 20:46 33.680663 -117.863102 304 62ft 0kts
14-Nov-20 20:47 33.680663 -117.863102 304 62ft 0kts
14-Nov-20 20:48 33.680663 -117.863102 304 62ft 0kts
14-Nov-20 20:49 33.680663 -117.863102 304 62ft 0kts
14-Nov-20 20:50 33.681186 -117.864266 297 63ft 17kts
14-Nov-20 20:51 33.661977 -117.877323 207 739ft 185kts
14-Nov-20 20:52 33.610159 -117.907290 207 3293ft 220kts
14-Nov-20 20:53 33.550031 -117.889474 149 5835ft 242kts
14-Nov-20 20:54 33.499288 -117.835862 116 7151ft 256kts
14-Nov-20 20:55 33.477378 -117.760425 84 6989ft 233kts
14-Nov-20 20:56 33.488790 -117.685320 59 6981ft 227kts
14-Nov-20 20:57 33.519599 -117.617771 57 6997ft 241kts
14-Nov-20 20:58 33.554040 -117.544993 57 7021ft 253kts
14-Nov-20 20:59 33.573514 -117.466474 100 7027ft 254kts
14-Nov-20 21:00 33.552123 -117.385575 107 7000ft 252kts
14-Nov-20 21:01 33.527897 -117.307099 108 6997ft 249kts
14-Nov-20 21:02 33.506123 -117.231268 91 8172ft 241kts
14-Nov-20 21:03 33.503386 -117.141226 87 12534ft 287kts
14-Nov-20 21:04 33.501021 -117.035886 88 14258ft 333kts
14-Nov-20 21:05 33.498464 -116.918047 89 17747ft 373kts
14-Nov-20 21:06 33.496874 -116.792952 88 21693ft 377kts
14-Nov-20 21:07 33.495390 -116.670395 88 25630ft 359kts
14-Nov-20 21:08 33.493856 -116.548751 87 28064ft 374kts
14-Nov-20 21:09 33.492117 -116.422897 87 30479ft 381kts
14-Nov-20 21:10 33.490243 -116.293926 88 32384ft 395kts
14-Nov-20 21:11 33.488146 -116.160150 88 34085ft 407kts
14-Nov-20 21:12 33.492028 -116.023114 70 35173ft 424kts
14-Nov-20 21:13 33.531036 -115.881719 66 35172ft 468kts
14-Nov-20 21:14 33.574942 -115.730048 66 35168ft 491kts
14-Nov-20 21:15 33.613000 -115.570470 82 35165ft 506kts
14-Nov-20 21:16 33.613020 -115.401405 88 35168ft 504kts
14-Nov-20 21:17 33.609155 -115.234694 89 35168ft 499kts
14-Nov-20 21:18 33.604786 -115.068770 89 35170ft 496kts
14-Nov-20 21:19 33.600181 -114.903288 89 35161ft 495kts
14-Nov-20 21:20 33.590013 -114.737562 99 34040ft 508kts
14-Nov-20 21:21 33.558945 -114.570762 100 31786ft 502kts
14-Nov-20 21:22 33.528876 -114.416522 100 29683ft 451kts
14-Nov-20 21:23 33.500347 -114.271456 101 27734ft 454kts
14-Nov-20 21:24 33.471110 -114.124024 100 25696ft 444kts
14-Nov-20 21:25 33.443211 -113.984544 100 25163ft 429kts
14-Nov-20 21:26 33.414899 -113.843555 100 24271ft 434kts
14-Nov-20 21:27 33.387036 -113.705548 100 23148ft 416kts
14-Nov-20 21:28 33.360312 -113.573909 100 22087ft 401kts
14-Nov-20 21:29 33.334760 -113.446346 98 21502ft 396kts
14-Nov-20 21:30 33.312459 -113.317302 98 19594ft 380kts
14-Nov-20 21:31 33.292911 -113.198842 96 17772ft 350kts
14-Nov-20 21:32 33.276584 -113.085510 96 16274ft 348kts
14-Nov-20 21:33 33.276922 -112.971737 84 14743ft 329kts
14-Nov-20 21:34 33.279388 -112.867684 84 13371ft 304kts
14-Nov-20 21:35 33.299392 -112.773320 63 12041ft 283kts
14-Nov-20 21:36 33.328797 -112.693268 62 10889ft 255kts
14-Nov-20 21:37 33.357453 -112.617793 62 9774ft 239kts
14-Nov-20 21:38 33.384340 -112.547123 62 8752ft 230kts
14-Nov-20 21:39 33.411259 -112.476576 62 7717ft 229kts
14-Nov-20 21:40 33.428399 -112.403398 79 6703ft 232kts
14-Nov-20 21:41 33.430244 -112.332796 89 6121ft 197kts
14-Nov-20 21:42 33.428640 -112.274578 87 5188ft 146kts
14-Nov-20 21:43 33.428686 -112.229527 87 4498ft 131kts
14-Nov-20 21:44 33.428750 -112.186905 87 3799ft 123kts
14-Nov-20 21:45 33.428808 -112.146090 88 3128ft 121kts
14-Nov-20 21:46 33.428805 -112.105864 88 2489ft 119kts
14-Nov-20 21:48 33.428831 -112.066592 89 1900ft 116kts
14-Nov-20 21:49 33.428857 -112.028001 88 1179ft 113kts
14-Nov-20 21:50 33.427963 -112.010768 195 1139ft 0kts
14-Nov-20 21:51 33.427963 -112.010768 195 1139ft 0kts
14-Nov-20 21:52 33.427748 -112.015034 270 1139ft 32kts
14-Nov-20 21:53 33.426228 -112.020601 136 1139ft 12kts
14-Nov-20 21:54 33.425855 -112.020658 268 1139ft 0kts

Navigation Log

Ident Type
Flight plan parsing failed, navigation log unavailable